createdAt,value
2023-02-19T00:02:33.603Z,0.52
2023-02-19T00:06:37.734Z,1.10
2023-02-19T00:10:41.380Z,0.85
2023-02-19T00:14:45.040Z,0.98
2023-02-19T00:18:50.312Z,0.93
2023-02-19T00:22:54.001Z,1.05
2023-02-19T00:26:57.556Z,0.85
2023-02-19T00:31:06.599Z,1.30
2023-02-19T00:35:11.398Z,1.10
2023-02-19T00:39:18.983Z,1.10
2023-02-19T00:43:22.788Z,0.70
2023-02-19T00:47:26.524Z,1.30
2023-02-19T00:51:33.464Z,1.13
2023-02-19T00:55:37.052Z,1.58
2023-02-19T00:59:40.629Z,0.95
2023-02-19T01:03:44.382Z,1.00
2023-02-19T01:07:49.255Z,0.93
2023-02-19T01:11:52.945Z,1.13
2023-02-19T01:15:56.781Z,0.75
2023-02-19T01:20:00.210Z,1.10
2023-02-19T01:24:05.275Z,0.88
2023-02-19T01:28:09.170Z,1.38
2023-02-19T01:32:12.755Z,1.10
2023-02-19T01:36:17.952Z,0.85
2023-02-19T01:40:23.610Z,1.05
2023-02-19T01:45:15.779Z,1.15
2023-02-19T01:49:23.559Z,1.48
2023-02-19T01:53:31.783Z,0.88
2023-02-19T01:57:42.552Z,1.30
2023-02-19T02:01:46.369Z,1.02
2023-02-19T02:05:58.713Z,1.10
2023-02-19T02:10:21.589Z,0.85
2023-02-19T02:14:29.690Z,0.90
2023-02-19T02:18:45.405Z,0.95
2023-02-19T02:22:56.973Z,0.95
2023-02-19T02:27:15.794Z,1.35
2023-02-19T02:31:26.873Z,0.98
2023-02-19T02:35:36.051Z,1.00
2023-02-19T02:39:40.558Z,0.75
2023-02-19T02:43:43.594Z,1.13
2023-02-19T02:47:52.233Z,1.30
2023-02-19T02:51:58.077Z,1.25
2023-02-19T02:56:03.032Z,1.38
2023-02-19T03:00:07.311Z,1.55
2023-02-19T03:04:16.401Z,1.33
2023-02-19T03:08:25.052Z,1.25
2023-02-19T03:12:49.619Z,1.17
2023-02-19T03:17:17.317Z,1.42
2023-02-19T03:21:24.082Z,1.40
2023-02-19T03:25:47.711Z,2.03
2023-02-19T03:29:55.097Z,0.98
2023-02-19T03:34:01.568Z,1.48
2023-02-19T03:38:13.319Z,1.23
2023-02-19T03:42:22.580Z,1.10
2023-02-19T03:46:32.894Z,1.08
2023-02-19T03:50:44.769Z,1.25
2023-02-19T03:54:56.967Z,1.08
2023-02-19T03:59:07.168Z,1.50
2023-02-19T04:03:18.243Z,1.15
2023-02-19T04:07:22.649Z,1.10
2023-02-19T04:11:29.180Z,1.40
2023-02-19T04:15:35.403Z,1.10
2023-02-19T04:19:42.324Z,0.90
2023-02-19T04:23:47.766Z,1.08
2023-02-19T04:27:53.925Z,0.95
2023-02-19T04:31:57.144Z,1.20
2023-02-19T04:36:00.739Z,1.20
2023-02-19T04:40:04.565Z,1.30
2023-02-19T04:44:09.134Z,1.00
2023-02-19T04:48:12.801Z,0.70
2023-02-19T04:52:15.932Z,1.50
2023-02-19T04:56:20.037Z,0.82
2023-02-19T05:00:25.022Z,1.10
2023-02-19T05:04:28.669Z,1.00
2023-02-19T05:08:32.713Z,1.10
2023-02-19T05:12:36.109Z,1.20
2023-02-19T05:16:41.013Z,1.45
2023-02-19T05:20:44.321Z,0.93
2023-02-19T05:24:47.860Z,1.65
2023-02-19T05:28:52.814Z,0.93
2023-02-19T05:32:57.952Z,1.25
2023-02-19T05:37:01.038Z,1.15
2023-02-19T05:41:13.153Z,1.38
2023-02-19T05:45:16.621Z,1.30
2023-02-19T05:49:21.616Z,1.33
2023-02-19T05:53:25.463Z,1.27
2023-02-19T05:57:28.873Z,1.42
2023-02-19T06:01:33.507Z,0.80
2023-02-19T06:05:38.640Z,1.52
2023-02-19T06:09:42.153Z,1.95
2023-02-19T06:13:45.857Z,1.40
2023-02-19T06:17:49.296Z,1.17
2023-02-19T06:21:53.799Z,1.25
2023-02-19T06:25:57.214Z,0.98
2023-02-19T06:30:00.563Z,0.75
2023-02-19T06:34:06.495Z,0.40
2023-02-19T06:38:11.330Z,0.80
2023-02-19T06:42:14.716Z,0.40
2023-02-19T06:46:18.267Z,0.70
2023-02-19T06:50:21.309Z,0.68
2023-02-19T06:54:27.315Z,0.50
2023-02-19T06:58:31.036Z,0.47
2023-02-19T07:02:34.726Z,0.20
2023-02-19T07:06:39.213Z,0.40
2023-02-19T07:10:44.057Z,0.50
2023-02-19T07:14:48.153Z,0.40
2023-02-19T07:18:51.806Z,0.60
2023-02-19T07:22:54.988Z,0.20
2023-02-19T07:26:59.899Z,0.35
2023-02-19T07:31:03.963Z,0.75
2023-02-19T07:35:08.962Z,0.40
2023-02-19T07:39:14.392Z,0.50
2023-02-19T07:43:19.110Z,0.65
2023-02-19T07:47:22.866Z,0.95
2023-02-19T07:51:26.250Z,0.47
2023-02-19T07:55:30.108Z,0.43
2023-02-19T07:59:36.218Z,0.80
2023-02-19T08:03:40.747Z,0.50
2023-02-19T08:07:43.881Z,0.75
2023-02-19T08:12:04.546Z,0.40
2023-02-19T08:16:26.608Z,0.20
2023-02-19T08:20:38.201Z,0.47
2023-02-19T08:24:43.068Z,0.60
2023-02-19T08:28:46.782Z,0.50
2023-02-19T08:32:51.807Z,0.50
2023-02-19T08:36:55.105Z,0.60
2023-02-19T08:40:58.651Z,0.57
2023-02-19T08:45:01.697Z,0.60
2023-02-19T08:49:14.527Z,0.40
2023-02-19T08:53:17.779Z,0.40
2023-02-19T08:57:20.781Z,1.10
2023-02-19T09:01:24.681Z,0.30
2023-02-19T09:05:29.720Z,0.40
2023-02-19T09:09:33.435Z,0.40
2023-02-19T09:13:36.552Z,0.50
2023-02-19T09:17:39.947Z,0.60
2023-02-19T09:21:45.723Z,0.20
2023-02-19T09:25:48.796Z,0.52
2023-02-19T09:29:52.695Z,0.20
2023-02-19T09:33:55.754Z,0.17
2023-02-19T09:38:03.776Z,0.20
2023-02-19T09:42:16.968Z,0.20
2023-02-19T09:46:28.734Z,0.15
2023-02-19T09:50:38.529Z,0.20
2023-02-19T09:54:44.147Z,0.40
2023-02-19T09:58:50.779Z,0.28
2023-02-19T10:02:58.745Z,0.32
2023-02-19T10:07:03.861Z,0.10
2023-02-19T10:11:14.074Z,0.10
2023-02-19T10:15:21.115Z,0.20
2023-02-19T10:19:24.726Z,0.20
2023-02-19T10:23:28.179Z,0.20
2023-02-19T10:27:33.284Z,0.25
2023-02-19T10:31:36.852Z,0.20
2023-02-19T10:35:54.301Z,0.30
2023-02-19T10:39:57.676Z,0.20
2023-02-19T10:44:09.785Z,0.30
2023-02-19T10:48:26.084Z,0.40
2023-02-19T10:52:31.992Z,0.20
2023-02-19T10:56:35.782Z,0.22
2023-02-19T11:00:40.266Z,0.17
2023-02-19T11:04:44.328Z,0.30
2023-02-19T11:08:54.305Z,0.20
2023-02-19T11:13:00.790Z,0.40
2023-02-19T11:17:06.831Z,0.28
2023-02-19T11:21:29.287Z,0.30
2023-02-19T11:25:48.334Z,0.60
2023-02-19T11:29:52.338Z,0.25
2023-02-19T11:34:01.129Z,0.30
2023-02-19T11:38:04.624Z,0.10
2023-02-19T11:42:25.912Z,0.10
2023-02-19T11:46:37.253Z,0.10
2023-02-19T11:50:54.816Z,0.20
2023-02-19T11:55:10.532Z,0.10
2023-02-19T11:59:22.364Z,0.20
2023-02-19T12:03:37.924Z,0.20
2023-02-19T12:08:13.320Z,0.20
2023-02-19T12:12:28.700Z,0.08
2023-02-19T12:16:35.880Z,0.10
2023-02-19T12:20:49.244Z,0.20
2023-02-19T12:25:24.332Z,0.10
2023-02-19T12:29:41.464Z,0.10
2023-02-19T12:34:13.147Z,0.10
2023-02-19T12:38:25.949Z,0.28
2023-02-19T12:42:46.963Z,0.20
2023-02-19T12:46:54.535Z,0.10
2023-02-19T12:51:04.859Z,0.20
2023-02-19T12:55:21.365Z,0.47
2023-02-19T12:59:35.017Z,0.40
2023-02-19T13:03:43.553Z,0.30
2023-02-19T13:08:01.241Z,0.45
2023-02-19T13:12:08.791Z,0.40
2023-02-19T13:16:19.019Z,0.32
2023-02-19T13:20:29.728Z,0.32
2023-02-19T13:24:37.568Z,0.40
2023-02-19T13:28:57.804Z,0.60
2023-02-19T13:33:14.744Z,0.10
2023-02-19T13:37:19.402Z,0.45
2023-02-19T13:41:29.670Z,0.32
2023-02-19T13:45:36.829Z,0.32
2023-02-19T13:49:45.587Z,0.15
2023-02-19T13:54:00.032Z,0.30
2023-02-19T13:58:36.950Z,0.17
2023-02-19T14:02:40.308Z,0.20
2023-02-19T14:07:17.837Z,0.30
2023-02-19T14:12:00.620Z,0.30
2023-02-19T14:16:04.515Z,0.40
2023-02-19T14:21:07.853Z,0.30
2023-02-19T14:25:26.043Z,0.20
2023-02-19T14:29:30.611Z,0.30
2023-02-19T14:33:37.542Z,0.20
2023-02-19T14:37:42.307Z,0.50
2023-02-19T14:41:48.678Z,0.28
2023-02-19T14:45:56.053Z,0.25
2023-02-19T14:55:29.156Z,0.22
2023-02-19T14:59:32.305Z,0.40
2023-02-19T15:03:38.311Z,0.30
2023-02-19T15:07:44.258Z,0.20
2023-02-19T15:11:49.591Z,0.30
2023-02-19T15:15:53.557Z,0.40
2023-02-19T15:19:59.080Z,0.20
2023-02-19T15:24:04.707Z,0.43
2023-02-19T15:28:23.007Z,0.47
2023-02-19T15:32:28.202Z,0.20
2023-02-19T15:36:35.746Z,0.10
2023-02-19T15:40:39.855Z,0.30
2023-02-19T15:44:50.019Z,0.20
2023-02-19T15:49:01.666Z,0.20
2023-02-19T15:53:09.749Z,0.28
2023-02-19T15:57:18.696Z,0.22
2023-02-19T16:01:26.805Z,0.40
2023-02-19T16:05:30.860Z,0.50
2023-02-19T16:09:37.523Z,0.40
2023-02-19T16:13:40.957Z,0.22
2023-02-19T16:17:47.077Z,0.50
2023-02-19T16:21:50.994Z,0.15
2023-02-19T16:26:00.461Z,0.30
2023-02-19T16:30:08.692Z,0.40
2023-02-19T16:34:20.299Z,0.45
2023-02-19T16:38:23.864Z,0.82
2023-02-19T16:42:27.596Z,0.50
2023-02-19T16:46:31.414Z,0.35
2023-02-19T16:50:36.533Z,1.00
2023-02-19T16:54:39.900Z,0.50
2023-02-19T16:58:43.506Z,0.57
2023-02-19T17:02:48.590Z,0.70
2023-02-19T17:06:53.406Z,0.55
2023-02-19T17:10:56.462Z,0.38
2023-02-19T17:15:00.017Z,0.20
2023-02-19T17:19:05.670Z,0.20
2023-02-19T17:23:11.025Z,0.30
2023-02-19T17:27:14.993Z,0.47
2023-02-19T17:31:18.842Z,0.38
2023-02-19T17:35:22.676Z,0.40
2023-02-19T17:39:27.895Z,0.40
2023-02-19T17:43:31.687Z,0.55
2023-02-19T17:47:34.710Z,0.45
2023-02-19T17:51:38.398Z,0.47
2023-02-19T17:55:42.882Z,0.85
2023-02-19T17:59:46.736Z,0.50
2023-02-19T18:03:50.632Z,0.55
2023-02-19T18:07:53.882Z,0.35
2023-02-19T18:11:58.814Z,0.20
2023-02-19T18:16:01.957Z,0.60
2023-02-19T18:20:08.559Z,0.60
2023-02-19T18:24:12.197Z,0.65
2023-02-19T18:28:17.165Z,0.50
2023-02-19T18:32:21.320Z,0.60
2023-02-19T18:36:24.511Z,0.65
2023-02-19T18:40:29.654Z,0.60
2023-02-19T18:44:34.069Z,0.40
2023-02-19T18:48:38.038Z,0.65
2023-02-19T18:52:41.077Z,0.73
2023-02-19T18:56:45.794Z,0.55
2023-02-19T19:00:50.757Z,0.50
2023-02-19T19:04:56.503Z,0.55
2023-02-19T19:09:00.684Z,0.60
2023-02-19T19:13:03.743Z,0.95
2023-02-19T19:17:08.798Z,0.40
2023-02-19T19:21:12.751Z,0.70
2023-02-19T19:25:16.375Z,0.45
2023-02-19T19:29:23.682Z,0.68
2023-02-19T19:33:28.546Z,1.13
2023-02-19T19:37:32.619Z,1.13
2023-02-19T19:41:35.965Z,0.60
2023-02-19T19:45:42.445Z,0.60
2023-02-19T19:49:48.475Z,0.60
2023-02-19T19:53:51.975Z,0.50
2023-02-19T19:57:55.700Z,0.50
2023-02-19T20:01:59.660Z,0.47
2023-02-19T20:06:04.528Z,0.68
2023-02-19T20:10:14.088Z,0.80
2023-02-19T20:14:18.785Z,0.50
2023-02-19T20:18:22.016Z,0.50
2023-02-19T20:22:26.882Z,0.98
2023-02-19T20:26:31.373Z,0.70
2023-02-19T20:30:35.235Z,0.68
2023-02-19T20:34:38.884Z,0.65
2023-02-19T20:38:44.244Z,0.75
2023-02-19T20:42:48.386Z,0.90
2023-02-19T20:46:54.670Z,0.80
2023-02-19T20:50:59.905Z,0.93
2023-02-19T20:55:05.102Z,0.50
2023-02-19T20:59:08.729Z,0.82
2023-02-19T21:03:12.291Z,1.00
2023-02-19T21:07:16.390Z,0.70
2023-02-19T21:11:21.222Z,1.40
2023-02-19T21:15:25.222Z,0.88
2023-02-19T21:19:28.648Z,0.60
2023-02-19T21:23:32.469Z,0.55
2023-02-19T21:27:37.568Z,0.90
2023-02-19T21:31:42.337Z,0.90
2023-02-19T21:35:45.401Z,0.80
2023-02-19T21:39:49.549Z,1.23
2023-02-19T21:43:54.943Z,1.30
2023-02-19T21:47:58.811Z,1.10
2023-02-19T21:52:02.364Z,0.80
2023-02-19T21:56:05.870Z,0.55
2023-02-19T22:00:12.252Z,0.43
2023-02-19T22:04:18.407Z,0.82
2023-02-19T22:08:22.408Z,0.47
2023-02-19T22:12:25.474Z,0.75
2023-02-19T22:16:30.758Z,0.90
2023-02-19T22:20:34.810Z,0.88
2023-02-19T22:24:38.250Z,0.98
2023-02-19T22:28:42.470Z,1.00
2023-02-19T22:32:47.383Z,0.70
2023-02-19T22:36:51.495Z,1.05
2023-02-19T22:40:55.149Z,0.47
2023-02-19T22:44:58.836Z,0.98
2023-02-19T22:49:05.471Z,0.90
2023-02-19T22:53:08.825Z,0.90
2023-02-19T22:57:12.234Z,1.02
2023-02-19T23:01:16.431Z,0.80
2023-02-19T23:05:23.045Z,0.90
2023-02-19T23:09:29.183Z,0.77
2023-02-19T23:13:32.578Z,0.75
2023-02-19T23:17:36.380Z,0.63
2023-02-19T23:21:41.920Z,0.75
2023-02-19T23:25:45.945Z,0.60
2023-02-19T23:29:49.356Z,0.73
2023-02-19T23:33:52.806Z,0.80
2023-02-19T23:37:57.871Z,0.63
2023-02-19T23:42:01.328Z,0.82
2023-02-19T23:46:05.255Z,0.80
2023-02-19T23:50:09.492Z,0.93
2023-02-19T23:54:14.602Z,0.70
2023-02-19T23:58:18.208Z,0.60
